Time;durP1;ratioP1;P1;durP2;ratioP2;P2;SDS_P1;SDS_P2;PMS_P1;PMS_P2;Temp;Humidity;BMP_temperature;BMP_pressure;BME280_temperature;BME280_humidity;BME280_pressure;Samples;Min_cycle;Max_cycle;Signal;HPM_P1;HPM_P2
2022/08/25 00:01:19;;;;;;;2.30;1.42;;;21.70;79.90;;;;;;5054446;28;20029;-65
2022/08/25 00:03:46;;;;;;;5.00;1.42;;;22.00;79.10;;;;;;5052937;28;20087;-65
2022/08/25 00:06:14;;;;;;;4.13;1.48;;;21.80;79.60;;;;;;5052809;28;20076;-65
2022/08/25 00:08:41;;;;;;;2.05;1.55;;;21.70;80.10;;;;;;5051992;28;20044;-65
2022/08/25 00:11:12;;;;;;;2.78;1.17;;;21.50;80.40;;;;;;5050670;28;20037;-65
2022/08/25 00:13:41;;;;;;;;;;;21.50;81.10;;;;;;5058628;28;20036;-65
2022/08/25 00:16:08;;;;;;;5.35;1.23;;;21.40;81.10;;;;;;5072183;28;20255;-65
2022/08/25 00:18:36;;;;;;;3.60;1.40;;;21.50;81.00;;;;;;5072541;28;20376;-65
2022/08/25 00:21:04;;;;;;;3.03;1.20;;;21.40;81.00;;;;;;5071628;28;20124;-65
2022/08/25 00:23:31;;;;;;;4.78;1.90;;;21.40;81.20;;;;;;5059859;28;20068;-65
2022/08/25 00:25:57;;;;;;;2.40;1.50;;;21.40;81.10;;;;;;5052298;28;20045;-65
2022/08/25 00:28:23;;;;;;;1.92;1.50;;;21.40;81.40;;;;;;5053601;28;20052;-65
2022/08/25 00:30:50;;;;;;;3.53;1.30;;;21.40;81.20;;;;;;5053820;28;20040;-65
2022/08/25 00:33:16;;;;;;;1.73;1.40;;;21.50;81.10;;;;;;5053812;28;20377;-65
2022/08/25 00:35:42;;;;;;;2.13;1.45;;;21.60;80.70;;;;;;5053534;28;20205;-65
2022/08/25 00:38:09;;;;;;;2.72;1.50;;;21.50;81.00;;;;;;5053521;28;20197;-65
2022/08/25 00:40:36;;;;;;;3.80;1.70;;;21.10;82.70;;;;;;5053292;28;20041;-65
2022/08/25 00:43:04;;;;;;;2.92;1.60;;;20.60;84.60;;;;;;5053496;28;20443;-65
2022/08/25 00:45:30;;;;;;;2.25;1.50;;;20.40;85.20;;;;;;5053744;28;20033;-65
2022/08/25 00:47:56;;;;;;;3.92;1.85;;;20.60;84.90;;;;;;5053682;28;20047;-65
2022/08/25 00:50:23;;;;;;;2.78;1.83;;;20.80;84.40;;;;;;5053732;28;20040;-65
2022/08/25 00:52:53;;;;;;;2.47;1.75;;;20.90;84.30;;;;;;5053763;28;20041;-65
2022/08/25 00:55:33;;;;;;;2.20;1.50;;;21.00;84.20;;;;;;5053756;28;20401;-65
2022/08/25 00:58:13;;;;;;;1.90;1.58;;;21.10;84.00;;;;;;5053740;28;20275;-65
2022/08/25 01:00:43;;;;;;;5.23;2.00;;;21.10;83.80;;;;;;5054789;28;20530;-65
2022/08/25 01:03:10;;;;;;;2.38;1.67;;;21.20;83.90;;;;;;5057737;28;20278;-65
2022/08/25 01:05:36;;;;;;;2.00;1.40;;;21.40;84.00;;;;;;5057604;28;20037;-65
2022/08/25 01:08:04;;;;;;;1.77;1.48;;;21.50;83.90;;;;;;5057558;28;20163;-65
2022/08/25 01:10:33;;;;;;;2.33;1.70;;;21.60;84.50;;;;;;5057263;28;20045;-65
2022/08/25 01:13:06;;;;;;;3.38;1.80;;;21.40;84.80;;;;;;5057229;28;20074;-65
2022/08/25 01:15:33;;;;;;;2.50;1.63;;;21.40;83.30;;;;;;5057396;28;20044;-65
2022/08/25 01:18:00;;;;;;;2.55;1.77;;;21.40;84.80;;;;;;5057427;28;20049;-65
2022/08/25 01:20:28;;;;;;;2.33;1.52;;;21.10;84.90;;;;;;5057180;28;20067;-65
2022/08/25 01:22:55;;;;;;;2.90;1.50;;;21.10;84.90;;;;;;5057243;28;20037;-65
2022/08/25 01:26:02;;;;;;;2.05;1.38;;;21.30;84.60;;;;;;5057216;28;20074;-65
2022/08/25 01:28:28;;;;;;;2.97;1.48;;;21.60;83.60;;;;;;5057126;28;20051;-65
2022/08/25 01:30:54;;;;;;;3.45;1.73;;;21.60;83.40;;;;;;5056997;28;20048;-65
2022/08/25 01:33:20;;;;;;;3.63;1.80;;;21.60;83.60;;;;;;5056976;28;20037;-65
2022/08/25 01:35:46;;;;;;;1.55;1.40;;;21.50;83.60;;;;;;5056654;28;20060;-65
2022/08/25 01:38:13;;;;;;;1.60;1.40;;;21.50;82.90;;;;;;5056774;28;20076;-65
2022/08/25 01:40:40;;;;;;;2.20;1.60;;;21.50;81.70;;;;;;5056733;28;20538;-65
2022/08/25 01:43:06;;;;;;;1.42;1.13;;;21.40;81.40;;;;;;5056754;28;20124;-65
2022/08/25 01:45:35;;;;;;;1.55;1.30;;;21.60;80.10;;;;;;5056749;28;20037;-65
2022/08/25 01:48:03;;;;;;;1.67;1.30;;;21.50;79.40;;;;;;5056677;28;20037;-65
2022/08/25 01:50:30;;;;;;;2.33;1.40;;;21.40;79.60;;;;;;5056492;28;20388;-65
2022/08/25 01:53:05;;;;;;;2.28;1.50;;;21.50;79.30;;;;;;5056708;28;20048;-65
2022/08/25 01:55:50;;;;;;;4.28;1.50;;;21.50;79.90;;;;;;5056832;28;20040;-65
2022/08/25 01:58:33;;;;;;;2.03;1.52;;;21.30;80.70;;;;;;5056714;28;20037;-65
2022/08/25 02:01:01;;;;;;;1.33;1.13;;;21.20;80.80;;;;;;5056410;28;20407;-65
2022/08/25 02:03:28;;;;;;;1.75;1.23;;;21.20;81.00;;;;;;5056616;28;20122;-65
2022/08/25 02:05:56;;;;;;;3.05;1.95;;;21.10;81.10;;;;;;5056436;28;20052;-65
2022/08/25 02:08:22;;;;;;;3.13;1.38;;;21.10;81.20;;;;;;5056419;28;20033;-65
2022/08/25 02:10:49;;;;;;;1.75;1.40;;;20.90;81.20;;;;;;5056094;28;20049;-65
2022/08/25 02:13:16;;;;;;;3.78;1.60;;;20.80;81.30;;;;;;5056129;28;20492;-65
2022/08/25 02:15:45;;;;;;;1.98;1.25;;;20.80;81.40;;;;;;5070568;28;20399;-65
2022/08/25 02:18:11;;;;;;;1.27;1.10;;;20.70;81.80;;;;;;5076407;28;20406;-65
2022/08/25 02:20:37;;;;;;;2.22;1.40;;;20.50;82.10;;;;;;5076148;28;20156;-65
2022/08/25 02:23:04;;;;;;;2.75;1.67;;;20.60;82.10;;;;;;5076455;28;20081;-65
2022/08/25 02:25:30;;;;;;;2.30;1.45;;;20.60;82.00;;;;;;5076142;28;20040;-65
2022/08/25 02:27:57;;;;;;;2.17;1.45;;;20.80;81.30;;;;;;5076006;28;20059;-65
2022/08/25 02:30:23;;;;;;;1.52;1.10;;;20.90;81.00;;;;;;5075934;28;20048;-65
2022/08/25 02:32:49;;;;;;;1.65;1.20;;;20.90;81.00;;;;;;5074533;28;20498;-65
2022/08/25 02:35:16;;;;;;;2.00;1.40;;;20.80;81.40;;;;;;5075802;28;20056;-65
2022/08/25 02:37:42;;;;;;;2.28;1.40;;;20.70;81.70;;;;;;5075656;28;20124;-65
2022/08/25 02:40:08;;;;;;;2.85;1.30;;;20.60;81.90;;;;;;5075639;28;20033;-65
2022/08/25 02:42:34;;;;;;;2.45;1.40;;;20.40;82.60;;;;;;5075364;28;20137;-65
2022/08/25 02:45:00;;;;;;;2.10;1.30;;;20.40;82.80;;;;;;5075560;28;20075;-65
2022/08/25 02:47:26;;;;;;;1.92;1.20;;;20.50;82.60;;;;;;5075761;28;20041;-65
2022/08/25 02:49:52;;;;;;;1.88;1.30;;;20.60;82.10;;;;;;5075671;28;20629;-65
2022/08/25 02:52:18;;;;;;;1.67;1.30;;;20.80;81.60;;;;;;5075528;28;20488;-65
2022/08/25 02:54:44;;;;;;;1.83;1.33;;;20.80;81.10;;;;;;5075151;28;20036;-65
2022/08/25 02:57:10;;;;;;;4.97;1.65;;;20.80;81.00;;;;;;5074928;28;20097;-65
2022/08/25 02:59:37;;;;;;;2.22;1.48;;;20.80;80.80;;;;;;5075392;28;20503;-65
2022/08/25 03:02:03;;;;;;;2.70;1.30;;;20.90;80.50;;;;;;5075049;28;20032;-65
2022/08/25 03:04:30;;;;;;;1.50;1.13;;;20.90;80.40;;;;;;5075145;28;20038;-65
2022/08/25 03:06:56;;;;;;;1.92;1.38;;;20.90;81.10;;;;;;5075128;28;20048;-65
2022/08/25 03:09:22;;;;;;;2.22;1.38;;;20.80;80.70;;;;;;5075112;28;20051;-65
2022/08/25 03:11:48;;;;;;;3.58;1.33;;;20.90;80.20;;;;;;5074780;28;20392;-65
2022/08/25 03:14:14;;;;;;;2.22;1.60;;;20.90;80.50;;;;;;5074848;28;20054;-65
2022/08/25 03:16:41;;;;;;;1.70;1.35;;;21.00;80.20;;;;;;5075056;28;20094;-65
2022/08/25 03:19:07;;;;;;;1.38;1.15;;;20.80;81.40;;;;;;5074988;28;20041;-65
2022/08/25 03:21:33;;;;;;;2.08;1.33;;;20.70;82.20;;;;;;5074923;28;20526;-65
2022/08/25 03:23:59;;;;;;;2.58;1.40;;;20.70;82.70;;;;;;5074318;28;20044;-65
2022/08/25 03:29:09;;;;;;;1.92;1.30;;;20.90;81.40;;;;;;5074900;28;20036;-65
2022/08/25 03:31:36;;;;;;;1.33;1.23;;;21.00;81.80;;;;;;5074870;28;20036;-65
2022/08/25 03:34:02;;;;;;;2.60;1.40;;;20.90;82.00;;;;;;5075050;28;20032;-65
2022/08/25 03:36:29;;;;;;;2.22;1.27;;;20.70;82.40;;;;;;5074518;28;20399;-65
2022/08/25 03:38:55;;;;;;;1.55;1.20;;;20.50;81.90;;;;;;5074502;28;20033;-65
2022/08/25 03:41:31;;;;;;;1.63;1.20;;;20.40;81.20;;;;;;5074420;28;20074;-65
2022/08/25 03:43:57;;;;;;;1.50;1.30;;;20.20;81.40;;;;;;5074205;28;20515;-65
2022/08/25 03:46:29;;;;;;;1.63;1.27;;;20.20;81.20;;;;;;5074486;28;20135;-65
2022/08/25 03:48:56;;;;;;;1.42;1.13;;;20.10;81.10;;;;;;5074472;28;20040;-65
2022/08/25 03:51:27;;;;;;;1.33;1.10;;;20.30;80.20;;;;;;5074405;28;20041;-65
2022/08/25 03:53:52;;;;;;;;;;;20.50;79.40;;;;;;5074822;28;20044;-65
2022/08/25 03:56:19;;;;;;;3.05;1.40;;;20.50;79.00;;;;;;5074181;28;19912;-65
2022/08/25 03:58:45;;;;;;;1.60;1.33;;;20.70;79.10;;;;;;5074080;28;20044;-65
2022/08/25 04:01:11;;;;;;;2.55;1.55;;;;;;;;;;5074255;28;20042;-65
2022/08/25 04:03:37;;;;;;;1.55;1.17;;;20.60;78.60;;;;;;5074415;28;20044;-65
2022/08/25 04:06:05;;;;;;;2.03;1.30;;;20.60;78.50;;;;;;5074103;28;20032;-65
2022/08/25 04:08:31;;;;;;;1.55;1.10;;;20.60;78.60;;;;;;5074295;28;20040;-65
2022/08/25 04:10:57;;;;;;;1.55;1.30;;;20.50;78.80;;;;;;5074146;28;20514;-65
2022/08/25 04:13:23;;;;;;;3.05;1.52;;;20.60;79.80;;;;;;5074056;28;20032;-65
2022/08/25 04:15:49;;;;;;;1.40;1.20;;;20.50;79.60;;;;;;5073906;28;20040;-65
2022/08/25 04:18:15;;;;;;;5.85;1.20;;;20.40;79.90;;;;;;5074021;28;20127;-65
2022/08/25 04:20:41;;;;;;;2.60;1.35;;;20.30;81.50;;;;;;5074020;28;20036;-65
2022/08/25 04:23:09;;;;;;;2.65;1.30;;;20.10;82.70;;;;;;5074029;28;20032;-65
2022/08/25 04:25:41;;;;;;;2.22;1.27;;;20.10;82.70;;;;;;5072402;28;20647;-65
2022/08/25 04:28:09;;;;;;;3.33;1.40;;;20.10;82.20;;;;;;5062941;28;20404;-65
2022/08/25 04:30:35;;;;;;;1.80;1.40;;;19.90;82.90;;;;;;5052032;28;20487;-65
2022/08/25 04:33:01;;;;;;;6.93;1.80;;;19.80;83.80;;;;;;5053116;28;20063;-65
2022/08/25 04:35:27;;;;;;;2.45;1.40;;;19.90;84.50;;;;;;5051584;28;20504;-65
2022/08/25 04:37:53;;;;;;;2.05;1.30;;;20.00;82.90;;;;;;5051472;28;20124;-65
2022/08/25 04:40:19;;;;;;;2.03;1.25;;;20.00;84.00;;;;;;5059327;28;20128;-65
2022/08/25 04:42:47;;;;;;;2.97;1.73;;;19.90;84.00;;;;;;5071915;28;20036;-65
2022/08/25 04:45:14;;;;;;;1.77;1.45;;;19.90;82.60;;;;;;5070848;28;20040;-65
2022/08/25 04:47:40;;;;;;;1.95;1.35;;;20.00;83.70;;;;;;5071440;28;20037;-65
2022/08/25 04:50:08;;;;;;;2.17;1.27;;;20.00;84.20;;;;;;5070987;28;20071;-65
2022/08/25 04:52:34;;;;;;;1.92;1.45;;;19.90;83.90;;;;;;5070447;28;20051;-66
2022/08/25 04:55:01;;;;;;;2.22;1.13;;;19.90;83.50;;;;;;5071426;28;20046;-65
2022/08/25 04:57:27;;;;;;;3.22;1.25;;;;;;;;;;5071736;28;20531;-65
2022/08/25 04:59:54;;;;;;;1.77;1.38;;;19.60;99.20;;;;;;5070024;28;20048;-65
2022/08/25 05:02:21;;;;;;;2.22;1.48;;;19.50;84.50;;;;;;5071216;28;20048;-65
2022/08/25 05:04:48;;;;;;;1.98;1.20;;;19.70;83.90;;;;;;5073567;28;20040;-65
2022/08/25 05:07:15;;;;;;;2.17;1.02;;;19.70;83.40;;;;;;5071955;28;20044;-65
2022/08/25 05:09:42;;;;;;;1.83;1.30;;;19.70;83.90;;;;;;5071812;28;20032;-65
2022/08/25 05:12:08;;;;;;;2.92;1.35;;;19.70;83.50;;;;;;5070644;28;20127;-65
2022/08/25 05:14:34;;;;;;;1.73;1.42;;;19.80;83.20;;;;;;5070719;28;20051;-66
2022/08/25 05:17:00;;;;;;;3.28;1.33;;;19.90;83.00;;;;;;5070803;28;20060;-66
2022/08/25 05:19:26;;;;;;;2.15;1.42;;;20.00;82.60;;;;;;5071093;28;20123;-66
2022/08/25 05:21:53;;;;;;;1.52;1.00;;;20.10;82.80;;;;;;5070354;28;20040;-66
2022/08/25 05:24:20;;;;;;;2.08;1.45;;;20.10;83.00;;;;;;5070834;28;20048;-65
2022/08/25 05:26:47;;;;;;;1.35;1.17;;;20.00;83.00;;;;;;5070895;28;20040;-65
2022/08/25 05:29:16;;;;;;;3.33;1.33;;;20.00;82.60;;;;;;5070495;28;20033;-65
2022/08/25 05:31:43;;;;;;;3.28;1.65;;;19.90;83.30;;;;;;5071163;28;20039;-65
2022/08/25 05:34:11;;;;;;;2.22;1.48;;;19.90;84.20;;;;;;5070686;28;20495;-65
2022/08/25 05:36:41;;;;;;;1.33;1.20;;;19.40;84.90;;;;;;5053197;28;20060;-65
2022/08/25 05:39:09;;;;;;;4.57;1.90;;;19.30;85.20;;;;;;5069643;28;20492;-66
2022/08/25 05:41:35;;;;;;;1.65;1.23;;;19.50;84.80;;;;;;5070231;28;20462;-66
2022/08/25 05:44:01;;;;;;;1.65;1.25;;;19.70;83.90;;;;;;5071104;28;20048;-65
2022/08/25 05:46:28;;;;;;;2.45;1.30;;;20.10;83.20;;;;;;5072337;28;20125;-66
2022/08/25 05:48:55;;;;;;;8.60;1.20;;;20.50;83.70;;;;;;5073483;28;20036;-65
2022/08/25 05:51:21;;;;;;;2.50;1.35;;;20.90;81.90;;;;;;5073863;28;20105;-65
2022/08/25 05:53:49;;;;;;;3.42;1.13;;;;;;;;;;5074623;28;20068;-65
2022/08/25 05:56:15;;;;;;;2.88;1.42;;;21.40;82.90;;;;;;5074808;28;20044;-66
2022/08/25 05:58:42;;;;;;;2.03;1.30;;;21.50;84.20;;;;;;5074820;28;20696;-65
2022/08/25 06:04:01;;;;;;;1.75;1.40;;;21.50;84.60;;;;;;5074260;28;20036;-66
2022/08/25 06:06:27;;;;;;;2.60;1.35;;;21.40;84.90;;;;;;5074776;28;20041;-66
2022/08/25 06:08:55;;;;;;;2.17;1.42;;;21.20;85.80;;;;;;5074215;28;20529;-66
2022/08/25 06:11:21;;;;;;;2.15;1.60;;;21.40;86.20;;;;;;5074459;28;20052;-66
2022/08/25 06:13:48;;;;;;;1.95;1.30;;;21.70;87.50;;;;;;5075144;28;20036;-66
2022/08/25 06:16:15;;;;;;;2.15;1.27;;;21.70;85.00;;;;;;5074405;28;20407;-66
2022/08/25 06:18:41;;;;;;;4.07;1.55;;;21.70;84.40;;;;;;5073404;28;20040;-67
2022/08/25 06:21:12;;;;;;;3.28;2.00;;;21.70;86.10;;;;;;5075477;28;20124;-66
2022/08/25 06:23:38;;;;;;;;;;;21.60;86.30;;;;;;5076432;28;20094;-65
2022/08/25 06:26:04;;;;;;;4.13;1.60;;;21.40;85.20;;;;;;5076038;28;19908;-65
2022/08/25 06:28:30;;;;;;;3.28;1.42;;;21.50;84.70;;;;;;5075935;28;20048;-66
2022/08/25 06:31:00;;;;;;;3.97;1.35;;;21.60;85.20;;;;;;5075809;28;20439;-65
2022/08/25 06:33:26;;;;;;;1.90;1.38;;;21.80;84.20;;;;;;5075894;28;20041;-66
2022/08/25 06:35:56;;;;;;;4.53;1.70;;;22.10;84.70;;;;;;5075711;28;20037;-66
2022/08/25 06:38:22;;;;;;;2.17;1.50;;;22.40;83.30;;;;;;5075930;28;20075;-67
2022/08/25 06:40:50;;;;;;;6.05;1.60;;;22.50;81.70;;;;;;5075716;28;20040;-66
2022/08/25 06:43:17;;;;;;;1.88;1.38;;;22.70;80.30;;;;;;5075699;28;20047;-66
2022/08/25 06:45:43;;;;;;;4.00;1.38;;;22.80;82.00;;;;;;5075720;28;20044;-66
2022/08/25 06:48:09;;;;;;;1.83;1.50;;;22.80;81.20;;;;;;5075683;28;20032;-66
2022/08/25 06:50:38;;;;;;;2.38;1.50;;;22.80;81.60;;;;;;5075534;28;20108;-66
2022/08/25 06:53:04;;;;;;;3.22;1.70;;;23.00;82.70;;;;;;5075259;28;20047;-66
2022/08/25 06:55:30;;;;;;;2.05;1.60;;;23.20;83.10;;;;;;5075244;28;20076;-66
2022/08/25 06:57:56;;;;;;;1.80;1.33;;;23.50;81.90;;;;;;5074271;28;20529;-67
2022/08/25 07:00:22;;;;;;;1.50;1.33;;;23.60;82.30;;;;;;5075361;28;20119;-66
2022/08/25 07:02:48;;;;;;;2.53;1.60;;;23.60;82.00;;;;;;5075261;28;20048;-67
2022/08/25 07:05:14;;;;;;;4.47;1.60;;;23.70;82.80;;;;;;5075186;28;20495;-66
2022/08/25 07:07:39;;;;;;;2.78;1.77;;;24.00;83.40;;;;;;5075193;28;20086;-66
2022/08/25 07:10:06;;;;;;;3.65;1.65;;;24.20;83.10;;;;;;5075192;28;20036;-66
2022/08/25 07:12:32;;;;;;;2.13;1.60;;;24.30;82.40;;;;;;5075631;28;20063;-66
2022/08/25 07:14:57;;;;;;;2.17;1.75;;;24.50;83.50;;;;;;5075332;28;20072;-66
2022/08/25 07:17:23;;;;;;;4.53;1.63;;;24.70;82.40;;;;;;5075075;28;20074;-66
2022/08/25 07:19:49;;;;;;;1.98;1.65;;;24.90;81.20;;;;;;5074301;28;20106;-66
2022/08/25 07:22:15;;;;;;;1.52;1.23;;;25.00;80.30;;;;;;5074938;28;20040;-65
2022/08/25 07:24:40;;;;;;;4.15;1.85;;;25.10;82.00;;;;;;5074929;28;20123;-66
2022/08/25 07:27:06;;;;;;;2.95;1.65;;;25.80;81.50;;;;;;5072847;28;20052;-66
2022/08/25 07:29:35;;;;;;;4.03;1.80;;;26.00;80.60;;;;;;5074384;28;20036;-66
2022/08/25 07:32:02;;;;;;;2.65;1.95;;;25.80;81.30;;;;;;5073346;28;20052;-66
2022/08/25 07:37:12;;;;;;;2.35;1.50;;;26.10;80.40;;;;;;5053631;28;20099;-66
2022/08/25 07:39:37;;;;;;;6.25;1.80;;;26.20;81.30;;;;;;5064251;28;20036;-66
2022/08/25 07:42:04;;;;;;;3.42;1.80;;;26.10;81.60;;;;;;5074526;28;20059;-67
2022/08/25 07:44:30;;;;;;;3.08;1.90;;;26.20;81.00;;;;;;5074654;28;20068;-66
2022/08/25 07:46:56;;;;;;;3.33;1.73;;;26.40;80.70;;;;;;5074185;28;20519;-66
2022/08/25 07:49:24;;;;;;;2.28;2.00;;;26.40;81.00;;;;;;5074473;28;20044;-67
2022/08/25 07:51:52;;;;;;;2.33;1.80;;;26.90;79.90;;;;;;5074367;28;20043;-66
2022/08/25 07:54:18;;;;;;;3.05;2.30;;;26.80;80.30;;;;;;5074059;28;20044;-66
2022/08/25 07:56:43;;;;;;;2.10;1.52;;;27.10;80.10;;;;;;5074018;28;20055;-67
2022/08/25 07:59:12;;;;;;;5.18;1.73;;;27.10;79.80;;;;;;5074127;28;20564;-66
2022/08/25 08:01:39;;;;;;;5.72;1.80;;;27.00;80.60;;;;;;5074203;28;20028;-67
2022/08/25 08:04:05;;;;;;;2.08;1.70;;;27.10;80.50;;;;;;5068667;28;20396;-67
2022/08/25 08:06:30;;;;;;;1.80;1.48;;;27.50;80.60;;;;;;5063006;28;20040;-67
2022/08/25 08:08:56;;;;;;;2.17;1.85;;;27.40;79.60;;;;;;5053499;28;20488;-67
2022/08/25 08:11:25;;;;;;;2.00;1.50;;;27.70;80.20;;;;;;5053616;28;20443;-67
2022/08/25 08:13:53;;;;;;;2.30;1.90;;;27.70;78.90;;;;;;5053849;28;20041;-67
2022/08/25 08:16:19;;;;;;;3.08;1.75;;;;;;;;;;5053996;28;20110;-67
2022/08/25 08:18:45;;;;;;;2.95;1.58;;;28.10;79.10;;;;;;5054087;28;20094;-67
2022/08/25 08:21:16;;;;;;;2.35;1.70;;;28.10;78.40;;;;;;5052583;28;20451;-67
2022/08/25 08:23:43;;;;;;;3.42;1.90;;;28.30;78.60;;;;;;5053221;28;20033;-67
2022/08/25 08:26:09;;;;;;;2.78;1.70;;;28.50;79.10;;;;;;5053827;28;20065;-67
2022/08/25 08:28:35;;;;;;;2.10;1.60;;;28.50;78.70;;;;;;5053819;28;20080;-66
2022/08/25 08:31:01;;;;;;;1.77;1.35;;;28.40;78.00;;;;;;5053663;28;20037;-68
2022/08/25 08:33:27;;;;;;;3.95;1.70;;;28.70;77.80;;;;;;5054012;28;20052;-67
2022/08/25 08:36:10;;;;;;;2.03;1.65;;;28.70;78.00;;;;;;5053585;28;20097;-67
2022/08/25 08:38:38;;;;;;;2.00;1.45;;;28.90;77.80;;;;;;5053914;28;20063;-67
2022/08/25 08:44:46;;;;;;;3.75;1.65;;;28.90;77.40;;;;;;5062058;28;20078;-67
2022/08/25 08:47:31;;;;;;;1.50;1.40;;;29.20;78.40;;;;;;5073503;28;20036;-67
2022/08/25 08:50:27;;;;;;;2.67;1.80;;;29.40;76.80;;;;;;5073483;28;20123;-67
2022/08/25 08:53:03;;;;;;;4.20;1.50;;;28.90;75.60;;;;;;5073824;28;20036;-68
2022/08/25 08:55:31;;;;;;;2.25;1.70;;;28.80;76.50;;;;;;5073644;28;20048;-67
2022/08/25 08:58:01;;;;;;;2.10;1.30;;;28.90;75.80;;;;;;5073553;28;20041;-67
2022/08/25 09:00:27;;;;;;;1.30;1.20;;;29.10;76.60;;;;;;5073690;28;20045;-67
2022/08/25 09:03:03;;;;;;;3.30;1.60;;;29.20;76.70;;;;;;5073827;28;20290;-67
2022/08/25 09:05:34;;;;;;;1.65;1.50;;;29.40;76.50;;;;;;5073474;28;20036;-67
2022/08/25 09:08:08;;;;;;;1.90;1.63;;;29.70;75.50;;;;;;5073566;28;20032;-66
2022/08/25 09:10:57;;;;;;;2.88;1.38;;;29.80;75.40;;;;;;5073543;28;20181;-66
2022/08/25 09:13:43;;;;;;;2.30;1.50;;;29.90;74.90;;;;;;5073671;28;20483;-66
2022/08/25 09:16:55;;;;;;;2.85;1.25;;;29.90;74.80;;;;;;5073500;28;20521;-67
2022/08/25 09:19:51;;;;;;;4.03;1.75;;;30.10;73.90;;;;;;5073606;28;20495;-66
2022/08/25 09:22:23;;;;;;;2.35;1.50;;;29.70;74.30;;;;;;5075303;28;20399;-66
2022/08/25 09:25:09;;;;;;;2.20;1.50;;;29.90;73.60;;;;;;5057240;28;20120;-66
2022/08/25 09:28:02;;;;;;;3.00;1.40;;;29.70;74.10;;;;;;5057409;28;20041;-66
2022/08/25 09:30:45;;;;;;;4.22;1.73;;;29.90;74.10;;;;;;5057304;28;20119;-66
2022/08/25 09:33:17;;;;;;;2.45;1.70;;;30.20;73.40;;;;;;5056878;28;20395;-66
2022/08/25 09:35:43;;;;;;;2.35;1.40;;;30.10;72.90;;;;;;5056911;28;20408;-66
2022/08/25 09:38:10;;;;;;;1.80;1.65;;;29.90;72.80;;;;;;5059795;28;20141;-66
2022/08/25 09:40:52;;;;;;;3.40;1.52;;;29.90;73.00;;;;;;5076639;28;20496;-67
2022/08/25 09:43:23;;;;;;;3.50;1.77;;;30.10;73.00;;;;;;5076985;28;20041;-66
2022/08/25 09:46:00;;;;;;;3.85;1.75;;;30.20;73.20;;;;;;5076900;28;20045;-65
2022/08/25 09:48:41;;;;;;;2.45;1.73;;;30.20;73.60;;;;;;5076885;28;20036;-66
2022/08/25 09:51:29;;;;;;;1.98;1.60;;;30.70;73.50;;;;;;5076757;28;20068;-66
2022/08/25 09:54:18;;;;;;;1.73;1.43;;;30.30;72.80;;;;;;5076473;28;20088;-65
2022/08/25 09:57:04;;;;;;;1.98;1.42;;;30.40;73.80;;;;;;5076587;28;20052;-66
2022/08/25 09:59:33;;;;;;;2.50;1.77;;;30.30;72.90;;;;;;5076756;28;20040;-66
2022/08/25 10:02:03;;;;;;;2.85;1.83;;;30.80;73.50;;;;;;5076390;28;20115;-66
2022/08/25 10:04:32;;;;;;;2.55;1.83;;;30.60;73.00;;;;;;5076462;28;20040;-66
2022/08/25 10:06:59;;;;;;;3.03;1.48;;;30.70;72.70;;;;;;5076358;28;20048;-66
2022/08/25 10:09:41;;;;;;;1.50;1.40;;;30.60;73.20;;;;;;5076508;28;20123;-66
2022/08/25 10:12:40;;;;;;;1.90;1.50;;;31.00;73.20;;;;;;5076361;28;20048;-68
2022/08/25 10:15:20;;;;;;;1.75;1.35;;;30.70;72.70;;;;;;5072015;28;20036;-66
2022/08/25 10:17:49;;;;;;;1.77;1.33;;;30.60;72.70;;;;;;5052666;28;20048;-66
2022/08/25 10:20:19;;;;;;;1.88;1.60;;;31.00;73.30;;;;;;5053345;28;20106;-66
2022/08/25 10:22:48;;;;;;;2.72;1.55;;;31.40;73.20;;;;;;5052748;28;20369;-66
2022/08/25 10:25:30;;;;;;;2.72;1.95;;;31.80;72.60;;;;;;5052786;28;20033;-66
2022/08/25 10:28:27;;;;;;;2.80;1.83;;;32.10;70.50;;;;;;5053690;28;20125;-66
2022/08/25 10:31:22;;;;;;;1.33;1.23;;;31.80;71.10;;;;;;5051166;28;20075;-66
2022/08/25 10:34:06;;;;;;;3.30;1.50;;;31.60;80.90;;;;;;5053241;28;20037;-66
2022/08/25 10:36:46;;;;;;;2.20;1.45;;;31.50;72.90;;;;;;5053414;28;20500;-66
2022/08/25 10:39:31;;;;;;;1.75;1.40;;;31.40;81.20;;;;;;5055917;28;20045;-66
2022/08/25 10:42:17;;;;;;;1.98;1.55;;;31.50;78.50;;;;;;5073579;28;20040;-66
2022/08/25 10:48:00;;;;;;;2.90;1.70;;;31.80;72.60;;;;;;5073788;28;20043;-66
2022/08/25 10:50:53;;;;;;;2.25;1.70;;;32.40;72.30;;;;;;5071527;28;20102;-66
2022/08/25 10:53:28;;;;;;;2.22;1.40;;;32.80;71.40;;;;;;5070944;28;20085;-66
2022/08/25 10:56:18;;;;;;;2.22;1.48;;;32.20;69.70;;;;;;5071438;28;20419;-66
2022/08/25 10:59:21;;;;;;;2.05;1.40;;;31.90;70.60;;;;;;5072663;28;20052;-66
2022/08/25 11:02:06;;;;;;;1.95;1.40;;;32.50;71.30;;;;;;5030126;28;20034;-66
2022/08/25 11:04:42;;;;;;;2.15;1.75;;;31.40;71.00;;;;;;5070968;28;20032;-66
2022/08/25 11:07:40;;;;;;;1.90;1.63;;;32.50;71.60;;;;;;5072831;28;20500;-65
2022/08/25 11:10:12;;;;;;;1.45;1.35;;;33.00;71.90;;;;;;5065831;28;20119;-65
2022/08/25 11:13:02;;;;;;;1.67;1.45;;;32.80;70.90;;;;;;5073115;28;20033;-66
2022/08/25 11:15:51;;;;;;;;;;;32.30;70.40;;;;;;5075004;28;20510;-66
2022/08/25 11:18:19;;;;;;;2.33;1.20;;;32.10;69.70;;;;;;5071424;28;20010;-67
2022/08/25 11:21:12;;;;;;;1.30;1.20;;;32.40;70.40;;;;;;5071594;28;20040;-66
2022/08/25 11:23:55;;;;;;;3.13;1.92;;;32.20;70.30;;;;;;5069734;28;20089;-67
2022/08/25 11:26:32;;;;;;;1.83;1.55;;;32.60;69.90;;;;;;5072755;28;20044;-66
2022/08/25 11:29:09;;;;;;;2.25;1.35;;;32.40;69.10;;;;;;5070460;28;20070;-70
2022/08/25 11:31:44;;;;;;;2.75;1.30;;;32.20;68.80;;;;;;5071124;28;20051;-65
2022/08/25 11:34:14;;;;;;;1.83;1.23;;;32.60;70.40;;;;;;5057613;28;20503;-65
2022/08/25 11:37:22;;;;;;;1.48;1.38;;;33.40;69.90;;;;;;5070122;28;20051;-65
2022/08/25 11:40:19;;;;;;;2.55;1.27;;;33.80;77.50;;;;;;5070678;28;20032;-66
2022/08/25 11:43:12;;;;;;;1.42;1.20;;;33.40;68.40;;;;;;5073044;28;20411;-65
2022/08/25 11:45:53;;;;;;;1.75;1.35;;;33.20;68.00;;;;;;5070742;28;20048;-66
2022/08/25 11:48:25;;;;;;;4.15;1.83;;;32.50;68.80;;;;;;5074041;28;20434;-66
2022/08/25 11:51:05;;;;;;;1.52;1.40;;;32.10;68.80;;;;;;5062360;28;20111;-66
2022/08/25 11:53:42;;;;;;;4.07;2.00;;;32.10;71.20;;;;;;5072081;28;20040;-65
2022/08/25 11:56:32;;;;;;;2.45;1.92;;;31.30;72.80;;;;;;5072058;28;20039;-65
2022/08/25 11:58:58;;;;;;;2.23;1.70;;;30.90;73.10;;;;;;5072085;28;20051;-66
2022/08/25 12:01:38;;;;;;;2.05;1.80;;;30.70;73.20;;;;;;5070565;28;20041;-65
2022/08/25 12:04:32;;;;;;;2.22;1.92;;;30.60;73.70;;;;;;5068608;28;20865;-65
2022/08/25 12:07:10;;;;;;;2.55;1.58;;;30.00;74.10;;;;;;5069478;28;20068;-65
2022/08/25 12:09:52;;;;;;;2.17;1.85;;;30.30;73.20;;;;;;5070205;28;20040;-65
2022/08/25 12:12:37;;;;;;;2.10;1.85;;;30.50;73.50;;;;;;5070037;28;20036;-65
2022/08/25 12:15:22;;;;;;;2.35;1.70;;;31.30;73.60;;;;;;5069467;28;20046;-65
2022/08/25 12:18:09;;;;;;;2.95;1.92;;;31.60;72.60;;;;;;5071215;28;20127;-65
2022/08/25 12:20:54;;;;;;;4.55;1.70;;;31.50;71.00;;;;;;5071646;28;20044;-65
2022/08/25 12:23:36;;;;;;;2.65;1.80;;;31.50;70.70;;;;;;5068663;28;20042;-65
2022/08/25 12:26:28;;;;;;;1.65;1.50;;;31.40;70.00;;;;;;5052766;28;20041;-65
2022/08/25 12:29:21;;;;;;;1.55;1.20;;;31.80;69.50;;;;;;5051643;28;20451;-66
2022/08/25 12:31:58;;;;;;;1.70;1.20;;;31.90;69.10;;;;;;5051288;28;20028;-65
2022/08/25 12:34:37;;;;;;;1.60;1.30;;;31.80;69.00;;;;;;5053406;28;20041;-65
2022/08/25 12:37:15;;;;;;;0.82;0.60;;;32.60;69.50;;;;;;5052639;28;20581;-66
2022/08/25 12:39:54;;;;;;;1.38;1.10;;;32.60;67.50;;;;;;5051372;28;20112;-65
2022/08/25 12:42:36;;;;;;;2.17;1.38;;;32.10;67.80;;;;;;5051492;28;20048;-65
2022/08/25 12:45:23;;;;;;;1.77;1.50;;;32.70;71.00;;;;;;5051599;28;20453;-66
2022/08/25 12:47:53;;;;;;;1.73;1.40;;;31.90;71.80;;;;;;5053140;28;20374;-65
2022/08/25 12:50:35;;;;;;;1.70;1.60;;;32.60;69.80;;;;;;5052152;28;20456;-65
2022/08/25 12:53:34;;;;;;;2.90;1.63;;;31.90;70.70;;;;;;5051481;28;20393;-65
2022/08/25 12:56:05;;;;;;;2.67;1.80;;;31.50;71.10;;;;;;5054878;28;20068;-65
2022/08/25 12:59:20;;;;;;;3.22;1.50;;;31.00;71.80;;;;;;5056427;28;20161;-65
2022/08/25 13:02:24;;;;;;;1.75;1.40;;;31.10;70.80;;;;;;5033110;28;20124;-65
2022/08/25 13:05:05;;;;;;;1.98;1.67;;;30.90;71.50;;;;;;5055038;28;20041;-65
2022/08/25 13:07:41;;;;;;;1.70;1.42;;;30.70;71.20;;;;;;5057289;28;20116;-65
2022/08/25 13:10:14;;;;;;;1.40;1.30;;;30.60;71.20;;;;;;5055026;28;20044;-65
2022/08/25 13:12:54;;;;;;;1.65;1.30;;;30.80;71.90;;;;;;5055340;28;20033;-65
2022/08/25 13:15:58;;;;;;;1.58;0.95;;;31.10;71.30;;;;;;5055077;28;20508;-65
2022/08/25 13:18:31;;;;;;;2.20;1.20;;;31.10;70.50;;;;;;5043955;28;20053;-65
2022/08/25 13:21:15;;;;;;;1.15;1.00;;;31.60;68.90;;;;;;5055224;28;20037;-65
2022/08/25 13:23:48;;;;;;;2.58;1.33;;;31.70;68.80;;;;;;5054272;28;20041;-65
2022/08/25 13:26:31;;;;;;;1.27;0.85;;;31.40;69.40;;;;;;5055125;28;20044;-65
2022/08/25 13:29:21;;;;;;;1.55;1.10;;;31.00;67.90;;;;;;5055588;28;20119;-65